sensor_id;sensor_type;location;lat;lon;timestamp;P1;durP1;ratioP1;P2;durP2;ratioP2
24637;SDS011;12773;50.162;8.548;2023-12-29T00:00:34;5.30;;;3.20;;
24637;SDS011;12773;50.162;8.548;2023-12-29T00:03:21;5.53;;;3.37;;
24637;SDS011;12773;50.162;8.548;2023-12-29T00:06:08;5.08;;;3.27;;
24637;SDS011;12773;50.162;8.548;2023-12-29T00:08:56;4.00;;;2.98;;
24637;SDS011;12773;50.162;8.548;2023-12-29T00:11:51;5.42;;;3.42;;
24637;SDS011;12773;50.162;8.548;2023-12-29T00:14:39;4.75;;;3.25;;
24637;SDS011;12773;50.162;8.548;2023-12-29T00:17:28;7.40;;;3.47;;
24637;SDS011;12773;50.162;8.548;2023-12-29T00:20:15;6.60;;;3.70;;
24637;SDS011;12773;50.162;8.548;2023-12-29T00:23:04;6.00;;;4.10;;
24637;SDS011;12773;50.162;8.548;2023-12-29T00:25:51;5.92;;;3.60;;
24637;SDS011;12773;50.162;8.548;2023-12-29T00:28:39;10.13;;;3.87;;
24637;SDS011;12773;50.162;8.548;2023-12-29T00:31:26;8.10;;;3.72;;
24637;SDS011;12773;50.162;8.548;2023-12-29T00:34:14;6.50;;;3.65;;
24637;SDS011;12773;50.162;8.548;2023-12-29T00:37:01;7.53;;;3.37;;
24637;SDS011;12773;50.162;8.548;2023-12-29T00:39:49;6.55;;;3.95;;
24637;SDS011;12773;50.162;8.548;2023-12-29T00:42:37;6.87;;;3.83;;
24637;SDS011;12773;50.162;8.548;2023-12-29T00:45:25;6.78;;;3.60;;
24637;SDS011;12773;50.162;8.548;2023-12-29T00:48:14;6.25;;;3.95;;
24637;SDS011;12773;50.162;8.548;2023-12-29T00:51:02;9.28;;;3.92;;
24637;SDS011;12773;50.162;8.548;2023-12-29T00:53:50;5.97;;;3.72;;
24637;SDS011;12773;50.162;8.548;2023-12-29T00:56:37;8.00;;;4.00;;
24637;SDS011;12773;50.162;8.548;2023-12-29T00:59:25;6.45;;;4.10;;
24637;SDS011;12773;50.162;8.548;2023-12-29T01:02:12;8.00;;;4.78;;
24637;SDS011;12773;50.162;8.548;2023-12-29T01:05:00;5.97;;;3.92;;
24637;SDS011;12773;50.162;8.548;2023-12-29T01:07:47;5.58;;;3.70;;
24637;SDS011;12773;50.162;8.548;2023-12-29T01:10:35;6.08;;;4.03;;
24637;SDS011;12773;50.162;8.548;2023-12-29T01:13:22;8.40;;;4.12;;
24637;SDS011;12773;50.162;8.548;2023-12-29T01:16:10;6.50;;;4.33;;
24637;SDS011;12773;50.162;8.548;2023-12-29T01:18:57;8.28;;;4.30;;
24637;SDS011;12773;50.162;8.548;2023-12-29T01:21:44;6.47;;;3.42;;
24637;SDS011;12773;50.162;8.548;2023-12-29T01:24:32;5.58;;;3.20;;
24637;SDS011;12773;50.162;8.548;2023-12-29T01:27:21;6.65;;;3.42;;
24637;SDS011;12773;50.162;8.548;2023-12-29T01:30:08;7.42;;;3.52;;
24637;SDS011;12773;50.162;8.548;2023-12-29T01:32:56;6.72;;;3.33;;
24637;SDS011;12773;50.162;8.548;2023-12-29T01:35:44;5.90;;;3.40;;
24637;SDS011;12773;50.162;8.548;2023-12-29T01:38:31;5.15;;;3.15;;
24637;SDS011;12773;50.162;8.548;2023-12-29T01:41:21;5.65;;;3.17;;
24637;SDS011;12773;50.162;8.548;2023-12-29T01:44:16;4.95;;;2.52;;
24637;SDS011;12773;50.162;8.548;2023-12-29T01:47:11;5.15;;;2.98;;
24637;SDS011;12773;50.162;8.548;2023-12-29T01:50:04;6.58;;;2.90;;
24637;SDS011;12773;50.162;8.548;2023-12-29T01:52:51;4.78;;;2.67;;
24637;SDS011;12773;50.162;8.548;2023-12-29T01:55:42;4.62;;;2.52;;
24637;SDS011;12773;50.162;8.548;2023-12-29T01:58:30;8.83;;;3.05;;
24637;SDS011;12773;50.162;8.548;2023-12-29T02:01:18;6.58;;;3.00;;
24637;SDS011;12773;50.162;8.548;2023-12-29T02:04:06;7.50;;;2.75;;
24637;SDS011;12773;50.162;8.548;2023-12-29T02:06:54;5.25;;;2.50;;
24637;SDS011;12773;50.162;8.548;2023-12-29T02:09:42;4.42;;;2.90;;
24637;SDS011;12773;50.162;8.548;2023-12-29T02:12:31;4.30;;;2.52;;
24637;SDS011;12773;50.162;8.548;2023-12-29T02:15:22;8.95;;;2.98;;
24637;SDS011;12773;50.162;8.548;2023-12-29T02:18:11;8.33;;;2.90;;
24637;SDS011;12773;50.162;8.548;2023-12-29T02:21:01;5.67;;;2.30;;
24637;SDS011;12773;50.162;8.548;2023-12-29T02:23:49;5.92;;;2.50;;
24637;SDS011;12773;50.162;8.548;2023-12-29T02:26:36;10.05;;;3.08;;
24637;SDS011;12773;50.162;8.548;2023-12-29T02:29:24;4.28;;;2.50;;
24637;SDS011;12773;50.162;8.548;2023-12-29T02:32:16;3.80;;;2.50;;
24637;SDS011;12773;50.162;8.548;2023-12-29T02:35:05;4.28;;;2.47;;
24637;SDS011;12773;50.162;8.548;2023-12-29T02:37:56;5.42;;;2.67;;
24637;SDS011;12773;50.162;8.548;2023-12-29T02:40:45;4.97;;;2.60;;
24637;SDS011;12773;50.162;8.548;2023-12-29T02:43:33;4.45;;;2.30;;
24637;SDS011;12773;50.162;8.548;2023-12-29T02:46:21;5.15;;;2.70;;
24637;SDS011;12773;50.162;8.548;2023-12-29T02:49:09;6.87;;;2.40;;
24637;SDS011;12773;50.162;8.548;2023-12-29T02:51:58;5.72;;;2.58;;
24637;SDS011;12773;50.162;8.548;2023-12-29T02:54:45;5.37;;;2.10;;
24637;SDS011;12773;50.162;8.548;2023-12-29T02:57:32;3.58;;;2.00;;
24637;SDS011;12773;50.162;8.548;2023-12-29T03:00:20;5.85;;;1.98;;
24637;SDS011;12773;50.162;8.548;2023-12-29T03:03:07;8.18;;;1.87;;
24637;SDS011;12773;50.162;8.548;2023-12-29T03:05:54;4.33;;;1.80;;
24637;SDS011;12773;50.162;8.548;2023-12-29T03:08:42;4.25;;;1.62;;
24637;SDS011;12773;50.162;8.548;2023-12-29T03:11:29;4.15;;;1.72;;
24637;SDS011;12773;50.162;8.548;2023-12-29T03:14:17;5.05;;;1.87;;
24637;SDS011;12773;50.162;8.548;2023-12-29T03:17:05;4.05;;;2.10;;
24637;SDS011;12773;50.162;8.548;2023-12-29T03:19:53;4.90;;;2.08;;
24637;SDS011;12773;50.162;8.548;2023-12-29T03:22:40;2.85;;;1.50;;
24637;SDS011;12773;50.162;8.548;2023-12-29T03:25:28;3.50;;;1.92;;
24637;SDS011;12773;50.162;8.548;2023-12-29T03:28:15;3.20;;;1.70;;
24637;SDS011;12773;50.162;8.548;2023-12-29T03:31:03;5.37;;;2.00;;
24637;SDS011;12773;50.162;8.548;2023-12-29T03:33:51;5.28;;;1.95;;
24637;SDS011;12773;50.162;8.548;2023-12-29T03:36:39;6.30;;;1.90;;
24637;SDS011;12773;50.162;8.548;2023-12-29T03:39:27;8.08;;;1.95;;
24637;SDS011;12773;50.162;8.548;2023-12-29T03:42:15;4.25;;;1.90;;
24637;SDS011;12773;50.162;8.548;2023-12-29T03:45:03;4.08;;;2.08;;
24637;SDS011;12773;50.162;8.548;2023-12-29T03:47:51;7.30;;;2.30;;
24637;SDS011;12773;50.162;8.548;2023-12-29T03:50:38;4.92;;;2.20;;
24637;SDS011;12773;50.162;8.548;2023-12-29T03:53:25;4.42;;;2.20;;
24637;SDS011;12773;50.162;8.548;2023-12-29T03:56:17;6.42;;;2.20;;
24637;SDS011;12773;50.162;8.548;2023-12-29T03:59:05;5.97;;;2.15;;
24637;SDS011;12773;50.162;8.548;2023-12-29T04:01:52;7.78;;;2.20;;
24637;SDS011;12773;50.162;8.548;2023-12-29T04:04:40;9.00;;;2.52;;
24637;SDS011;12773;50.162;8.548;2023-12-29T04:07:28;7.50;;;2.33;;
24637;SDS011;12773;50.162;8.548;2023-12-29T04:10:15;5.53;;;2.22;;
24637;SDS011;12773;50.162;8.548;2023-12-29T04:13:03;6.45;;;2.17;;
24637;SDS011;12773;50.162;8.548;2023-12-29T04:15:51;4.08;;;2.35;;
24637;SDS011;12773;50.162;8.548;2023-12-29T04:18:39;5.40;;;2.35;;
24637;SDS011;12773;50.162;8.548;2023-12-29T04:21:26;5.37;;;1.95;;
24637;SDS011;12773;50.162;8.548;2023-12-29T04:24:14;4.28;;;2.10;;
24637;SDS011;12773;50.162;8.548;2023-12-29T04:27:01;5.70;;;2.00;;
24637;SDS011;12773;50.162;8.548;2023-12-29T04:29:49;8.05;;;2.00;;
24637;SDS011;12773;50.162;8.548;2023-12-29T04:32:36;8.60;;;2.22;;
24637;SDS011;12773;50.162;8.548;2023-12-29T04:35:24;8.05;;;1.95;;
24637;SDS011;12773;50.162;8.548;2023-12-29T04:38:11;3.47;;;1.77;;
24637;SDS011;12773;50.162;8.548;2023-12-29T04:40:59;4.72;;;1.82;;
24637;SDS011;12773;50.162;8.548;2023-12-29T04:43:46;6.35;;;1.92;;
24637;SDS011;12773;50.162;8.548;2023-12-29T04:46:33;4.10;;;1.77;;
24637;SDS011;12773;50.162;8.548;2023-12-29T04:49:21;4.45;;;1.47;;
24637;SDS011;12773;50.162;8.548;2023-12-29T04:52:08;5.20;;;1.85;;
24637;SDS011;12773;50.162;8.548;2023-12-29T04:54:56;3.12;;;1.70;;
24637;SDS011;12773;50.162;8.548;2023-12-29T04:57:44;5.33;;;1.67;;
24637;SDS011;12773;50.162;8.548;2023-12-29T05:00:31;6.50;;;1.77;;
24637;SDS011;12773;50.162;8.548;2023-12-29T05:03:19;5.95;;;2.02;;
24637;SDS011;12773;50.162;8.548;2023-12-29T05:06:07;5.17;;;1.62;;
24637;SDS011;12773;50.162;8.548;2023-12-29T05:08:54;4.62;;;1.80;;
24637;SDS011;12773;50.162;8.548;2023-12-29T05:11:42;4.28;;;1.80;;
24637;SDS011;12773;50.162;8.548;2023-12-29T05:14:30;4.70;;;2.37;;
24637;SDS011;12773;50.162;8.548;2023-12-29T05:17:17;5.53;;;1.80;;
24637;SDS011;12773;50.162;8.548;2023-12-29T05:20:06;6.03;;;1.85;;
24637;SDS011;12773;50.162;8.548;2023-12-29T05:22:53;7.90;;;2.05;;
24637;SDS011;12773;50.162;8.548;2023-12-29T05:25:41;6.78;;;2.00;;
24637;SDS011;12773;50.162;8.548;2023-12-29T05:28:29;4.85;;;1.87;;
24637;SDS011;12773;50.162;8.548;2023-12-29T05:31:16;5.15;;;2.42;;
24637;SDS011;12773;50.162;8.548;2023-12-29T05:34:04;4.58;;;2.60;;
24637;SDS011;12773;50.162;8.548;2023-12-29T05:36:52;5.05;;;2.12;;
24637;SDS011;12773;50.162;8.548;2023-12-29T05:39:42;7.08;;;2.12;;
24637;SDS011;12773;50.162;8.548;2023-12-29T05:42:30;8.30;;;2.30;;
24637;SDS011;12773;50.162;8.548;2023-12-29T05:45:17;7.35;;;2.30;;
24637;SDS011;12773;50.162;8.548;2023-12-29T05:48:05;5.62;;;1.98;;
24637;SDS011;12773;50.162;8.548;2023-12-29T05:50:54;5.55;;;1.80;;
24637;SDS011;12773;50.162;8.548;2023-12-29T05:53:42;4.35;;;2.22;;
24637;SDS011;12773;50.162;8.548;2023-12-29T05:56:29;4.58;;;2.25;;
24637;SDS011;12773;50.162;8.548;2023-12-29T05:59:17;2.58;;;1.75;;
24637;SDS011;12773;50.162;8.548;2023-12-29T06:02:04;4.50;;;1.82;;
24637;SDS011;12773;50.162;8.548;2023-12-29T06:04:52;4.12;;;1.80;;
24637;SDS011;12773;50.162;8.548;2023-12-29T06:07:39;6.45;;;1.95;;
24637;SDS011;12773;50.162;8.548;2023-12-29T06:10:27;5.45;;;1.62;;
24637;SDS011;12773;50.162;8.548;2023-12-29T06:13:14;3.45;;;1.82;;
24637;SDS011;12773;50.162;8.548;2023-12-29T06:16:02;4.50;;;1.90;;
24637;SDS011;12773;50.162;8.548;2023-12-29T06:18:50;4.40;;;1.98;;
24637;SDS011;12773;50.162;8.548;2023-12-29T06:21:41;3.98;;;2.02;;
24637;SDS011;12773;50.162;8.548;2023-12-29T06:24:32;3.20;;;1.60;;
24637;SDS011;12773;50.162;8.548;2023-12-29T06:27:20;6.25;;;1.90;;
24637;SDS011;12773;50.162;8.548;2023-12-29T06:30:07;4.95;;;1.62;;
24637;SDS011;12773;50.162;8.548;2023-12-29T06:32:57;3.77;;;1.77;;
24637;SDS011;12773;50.162;8.548;2023-12-29T06:35:45;2.65;;;1.72;;
24637;SDS011;12773;50.162;8.548;2023-12-29T06:38:32;3.47;;;1.35;;
24637;SDS011;12773;50.162;8.548;2023-12-29T06:41:19;3.80;;;1.50;;
24637;SDS011;12773;50.162;8.548;2023-12-29T06:44:07;5.65;;;1.57;;
24637;SDS011;12773;50.162;8.548;2023-12-29T06:46:54;5.28;;;1.75;;
24637;SDS011;12773;50.162;8.548;2023-12-29T06:49:42;3.45;;;1.62;;
24637;SDS011;12773;50.162;8.548;2023-12-29T06:52:29;3.08;;;1.98;;
24637;SDS011;12773;50.162;8.548;2023-12-29T06:55:18;3.62;;;1.57;;
24637;SDS011;12773;50.162;8.548;2023-12-29T06:58:07;4.45;;;1.70;;
24637;SDS011;12773;50.162;8.548;2023-12-29T07:00:54;5.17;;;2.00;;
24637;SDS011;12773;50.162;8.548;2023-12-29T07:03:41;6.12;;;2.17;;
24637;SDS011;12773;50.162;8.548;2023-12-29T07:06:30;5.80;;;2.00;;
24637;SDS011;12773;50.162;8.548;2023-12-29T07:09:17;2.37;;;1.57;;
24637;SDS011;12773;50.162;8.548;2023-12-29T07:12:05;5.70;;;2.22;;
24637;SDS011;12773;50.162;8.548;2023-12-29T07:14:52;2.80;;;1.92;;
24637;SDS011;12773;50.162;8.548;2023-12-29T07:17:41;5.60;;;1.92;;
24637;SDS011;12773;50.162;8.548;2023-12-29T07:20:29;6.30;;;2.05;;
24637;SDS011;12773;50.162;8.548;2023-12-29T07:23:16;4.08;;;1.92;;
24637;SDS011;12773;50.162;8.548;2023-12-29T07:26:03;9.75;;;1.98;;
24637;SDS011;12773;50.162;8.548;2023-12-29T07:28:52;4.40;;;1.80;;
24637;SDS011;12773;50.162;8.548;2023-12-29T07:31:40;3.20;;;1.95;;
24637;SDS011;12773;50.162;8.548;2023-12-29T07:34:27;5.92;;;1.98;;
24637;SDS011;12773;50.162;8.548;2023-12-29T07:37:16;5.78;;;2.00;;
24637;SDS011;12773;50.162;8.548;2023-12-29T07:40:05;4.22;;;1.95;;
24637;SDS011;12773;50.162;8.548;2023-12-29T07:42:53;5.58;;;2.15;;
24637;SDS011;12773;50.162;8.548;2023-12-29T07:45:41;3.87;;;2.00;;
24637;SDS011;12773;50.162;8.548;2023-12-29T07:48:31;3.55;;;1.85;;
24637;SDS011;12773;50.162;8.548;2023-12-29T07:51:19;5.90;;;1.80;;
24637;SDS011;12773;50.162;8.548;2023-12-29T07:54:07;3.55;;;2.00;;
24637;SDS011;12773;50.162;8.548;2023-12-29T07:56:55;5.50;;;1.90;;
24637;SDS011;12773;50.162;8.548;2023-12-29T07:59:42;3.42;;;2.00;;
24637;SDS011;12773;50.162;8.548;2023-12-29T08:02:30;4.33;;;2.02;;
24637;SDS011;12773;50.162;8.548;2023-12-29T08:05:18;4.55;;;1.92;;
24637;SDS011;12773;50.162;8.548;2023-12-29T08:08:06;5.03;;;2.12;;
24637;SDS011;12773;50.162;8.548;2023-12-29T08:10:53;5.95;;;2.50;;
24637;SDS011;12773;50.162;8.548;2023-12-29T08:13:40;5.83;;;2.20;;
24637;SDS011;12773;50.162;8.548;2023-12-29T08:16:29;5.72;;;1.90;;
24637;SDS011;12773;50.162;8.548;2023-12-29T08:19:17;4.00;;;1.87;;
24637;SDS011;12773;50.162;8.548;2023-12-29T08:22:04;7.55;;;1.90;;
24637;SDS011;12773;50.162;8.548;2023-12-29T08:24:53;2.95;;;1.90;;
24637;SDS011;12773;50.162;8.548;2023-12-29T08:27:41;4.53;;;2.00;;
24637;SDS011;12773;50.162;8.548;2023-12-29T08:30:29;4.65;;;1.80;;
24637;SDS011;12773;50.162;8.548;2023-12-29T08:33:16;3.95;;;1.50;;
24637;SDS011;12773;50.162;8.548;2023-12-29T08:36:04;3.27;;;1.60;;
24637;SDS011;12773;50.162;8.548;2023-12-29T08:38:52;13.03;;;2.25;;
24637;SDS011;12773;50.162;8.548;2023-12-29T08:41:40;7.35;;;1.60;;
24637;SDS011;12773;50.162;8.548;2023-12-29T08:44:27;4.55;;;1.75;;
24637;SDS011;12773;50.162;8.548;2023-12-29T08:47:15;4.25;;;1.80;;
24637;SDS011;12773;50.162;8.548;2023-12-29T08:50:03;4.35;;;2.12;;
24637;SDS011;12773;50.162;8.548;2023-12-29T08:52:51;6.10;;;2.25;;
24637;SDS011;12773;50.162;8.548;2023-12-29T08:55:38;9.00;;;2.37;;
24637;SDS011;12773;50.162;8.548;2023-12-29T08:58:25;5.25;;;2.10;;
24637;SDS011;12773;50.162;8.548;2023-12-29T09:01:13;7.58;;;2.50;;
24637;SDS011;12773;50.162;8.548;2023-12-29T09:04:00;6.92;;;2.58;;
24637;SDS011;12773;50.162;8.548;2023-12-29T09:06:48;11.30;;;4.28;;
24637;SDS011;12773;50.162;8.548;2023-12-29T09:09:36;17.45;;;8.73;;
24637;SDS011;12773;50.162;8.548;2023-12-29T09:12:23;6.60;;;2.70;;
24637;SDS011;12773;50.162;8.548;2023-12-29T09:15:11;9.28;;;3.05;;
24637;SDS011;12773;50.162;8.548;2023-12-29T09:17:59;9.38;;;4.47;;
24637;SDS011;12773;50.162;8.548;2023-12-29T09:20:47;6.53;;;1.67;;
24637;SDS011;12773;50.162;8.548;2023-12-29T09:23:36;5.15;;;3.05;;
24637;SDS011;12773;50.162;8.548;2023-12-29T09:26:24;9.80;;;3.98;;
24637;SDS011;12773;50.162;8.548;2023-12-29T09:29:12;9.40;;;4.45;;
24637;SDS011;12773;50.162;8.548;2023-12-29T09:31:59;4.60;;;2.00;;
24637;SDS011;12773;50.162;8.548;2023-12-29T09:34:47;5.17;;;1.75;;
24637;SDS011;12773;50.162;8.548;2023-12-29T09:37:34;13.13;;;2.10;;
24637;SDS011;12773;50.162;8.548;2023-12-29T09:40:22;5.62;;;1.45;;
24637;SDS011;12773;50.162;8.548;2023-12-29T09:43:09;5.58;;;1.35;;
24637;SDS011;12773;50.162;8.548;2023-12-29T09:45:58;5.80;;;1.80;;
24637;SDS011;12773;50.162;8.548;2023-12-29T09:48:45;4.45;;;1.37;;
24637;SDS011;12773;50.162;8.548;2023-12-29T09:51:37;4.10;;;1.40;;
24637;SDS011;12773;50.162;8.548;2023-12-29T09:54:25;8.53;;;1.85;;
24637;SDS011;12773;50.162;8.548;2023-12-29T09:57:13;3.70;;;1.10;;
24637;SDS011;12773;50.162;8.548;2023-12-29T10:00:00;7.00;;;1.62;;
24637;SDS011;12773;50.162;8.548;2023-12-29T10:02:51;3.72;;;1.22;;
24637;SDS011;12773;50.162;8.548;2023-12-29T10:05:42;5.90;;;1.70;;
24637;SDS011;12773;50.162;8.548;2023-12-29T10:08:31;4.47;;;1.30;;
24637;SDS011;12773;50.162;8.548;2023-12-29T10:11:21;3.92;;;1.35;;
24637;SDS011;12773;50.162;8.548;2023-12-29T10:14:14;6.30;;;1.22;;
24637;SDS011;12773;50.162;8.548;2023-12-29T10:17:15;2.83;;;1.45;;
24637;SDS011;12773;50.162;8.548;2023-12-29T10:20:05;7.28;;;1.57;;
24637;SDS011;12773;50.162;8.548;2023-12-29T10:26:01;6.72;;;1.75;;
24637;SDS011;12773;50.162;8.548;2023-12-29T10:28:49;1.82;;;1.57;;
24637;SDS011;12773;50.162;8.548;2023-12-29T10:31:37;6.72;;;1.27;;
24637;SDS011;12773;50.162;8.548;2023-12-29T10:34:24;10.20;;;1.22;;
24637;SDS011;12773;50.162;8.548;2023-12-29T10:37:22;4.42;;;1.10;;
24637;SDS011;12773;50.162;8.548;2023-12-29T10:40:07;3.80;;;1.42;;
24637;SDS011;12773;50.162;8.548;2023-12-29T10:42:55;4.40;;;1.10;;
24637;SDS011;12773;50.162;8.548;2023-12-29T10:45:44;2.77;;;1.20;;
24637;SDS011;12773;50.162;8.548;2023-12-29T10:48:33;3.55;;;1.50;;
24637;SDS011;12773;50.162;8.548;2023-12-29T10:51:26;8.00;;;1.98;;
24637;SDS011;12773;50.162;8.548;2023-12-29T10:54:18;1.55;;;0.82;;
24637;SDS011;12773;50.162;8.548;2023-12-29T10:57:04;5.05;;;1.10;;
24637;SDS011;12773;50.162;8.548;2023-12-29T10:59:55;3.08;;;0.82;;
24637;SDS011;12773;50.162;8.548;2023-12-29T11:02:43;3.20;;;1.02;;
24637;SDS011;12773;50.162;8.548;2023-12-29T11:05:33;4.55;;;1.00;;
24637;SDS011;12773;50.162;8.548;2023-12-29T11:08:21;4.60;;;1.30;;
24637;SDS011;12773;50.162;8.548;2023-12-29T11:11:09;2.85;;;1.05;;
24637;SDS011;12773;50.162;8.548;2023-12-29T11:13:57;3.33;;;1.07;;
24637;SDS011;12773;50.162;8.548;2023-12-29T11:16:45;8.55;;;1.10;;
24637;SDS011;12773;50.162;8.548;2023-12-29T11:19:34;4.20;;;1.10;;
24637;SDS011;12773;50.162;8.548;2023-12-29T11:22:22;4.28;;;0.93;;
24637;SDS011;12773;50.162;8.548;2023-12-29T11:25:10;3.45;;;1.07;;
24637;SDS011;12773;50.162;8.548;2023-12-29T11:27:58;6.40;;;2.55;;
24637;SDS011;12773;50.162;8.548;2023-12-29T11:30:47;6.47;;;1.50;;
24637;SDS011;12773;50.162;8.548;2023-12-29T11:33:41;4.10;;;1.50;;
24637;SDS011;12773;50.162;8.548;2023-12-29T11:36:33;5.75;;;2.02;;
24637;SDS011;12773;50.162;8.548;2023-12-29T11:42:31;4.95;;;1.40;;
24637;SDS011;12773;50.162;8.548;2023-12-29T11:45:29;3.72;;;1.22;;
24637;SDS011;12773;50.162;8.548;2023-12-29T11:51:42;3.67;;;1.30;;
24637;SDS011;12773;50.162;8.548;2023-12-29T11:54:31;3.37;;;1.42;;
24637;SDS011;12773;50.162;8.548;2023-12-29T11:57:38;3.80;;;1.20;;
24637;SDS011;12773;50.162;8.548;2023-12-29T12:00:19;4.28;;;1.40;;
24637;SDS011;12773;50.162;8.548;2023-12-29T12:03:24;5.65;;;1.62;;
24637;SDS011;12773;50.162;8.548;2023-12-29T12:06:03;7.40;;;0.90;;
24637;SDS011;12773;50.162;8.548;2023-12-29T12:08:51;3.47;;;1.02;;
24637;SDS011;12773;50.162;8.548;2023-12-29T12:11:41;6.92;;;1.00;;
24637;SDS011;12773;50.162;8.548;2023-12-29T12:14:48;1.60;;;1.20;;
24637;SDS011;12773;50.162;8.548;2023-12-29T12:17:37;3.72;;;1.20;;
24637;SDS011;12773;50.162;8.548;2023-12-29T12:20:24;2.90;;;1.05;;
24637;SDS011;12773;50.162;8.548;2023-12-29T12:23:18;4.35;;;1.00;;
24637;SDS011;12773;50.162;8.548;2023-12-29T12:26:07;3.65;;;0.65;;
24637;SDS011;12773;50.162;8.548;2023-12-29T12:28:55;4.35;;;0.90;;
24637;SDS011;12773;50.162;8.548;2023-12-29T12:31:53;3.02;;;1.05;;
24637;SDS011;12773;50.162;8.548;2023-12-29T12:34:41;3.55;;;0.62;;
24637;SDS011;12773;50.162;8.548;2023-12-29T12:37:29;2.62;;;1.00;;
24637;SDS011;12773;50.162;8.548;2023-12-29T12:40:26;5.75;;;1.25;;
24637;SDS011;12773;50.162;8.548;2023-12-29T12:43:14;5.65;;;1.02;;
24637;SDS011;12773;50.162;8.548;2023-12-29T12:46:02;1.98;;;0.90;;
24637;SDS011;12773;50.162;8.548;2023-12-29T12:48:50;3.62;;;1.25;;
24637;SDS011;12773;50.162;8.548;2023-12-29T12:51:37;3.80;;;1.15;;
24637;SDS011;12773;50.162;8.548;2023-12-29T12:54:25;2.27;;;0.93;;
24637;SDS011;12773;50.162;8.548;2023-12-29T12:57:13;2.52;;;1.10;;
24637;SDS011;12773;50.162;8.548;2023-12-29T13:00:02;2.22;;;1.00;;
24637;SDS011;12773;50.162;8.548;2023-12-29T13:02:52;4.83;;;0.95;;
24637;SDS011;12773;50.162;8.548;2023-12-29T13:05:39;4.15;;;1.12;;
24637;SDS011;12773;50.162;8.548;2023-12-29T13:08:27;3.15;;;0.90;;
24637;SDS011;12773;50.162;8.548;2023-12-29T13:11:21;2.50;;;1.02;;
24637;SDS011;12773;50.162;8.548;2023-12-29T13:14:20;2.85;;;0.85;;
24637;SDS011;12773;50.162;8.548;2023-12-29T13:17:09;3.45;;;1.40;;
24637;SDS011;12773;50.162;8.548;2023-12-29T13:19:58;4.42;;;1.05;;
24637;SDS011;12773;50.162;8.548;2023-12-29T13:22:49;4.60;;;1.10;;
24637;SDS011;12773;50.162;8.548;2023-12-29T13:25:37;2.15;;;0.70;;
24637;SDS011;12773;50.162;8.548;2023-12-29T13:28:26;3.02;;;0.98;;
24637;SDS011;12773;50.162;8.548;2023-12-29T13:31:14;1.62;;;0.90;;
24637;SDS011;12773;50.162;8.548;2023-12-29T13:34:04;0.70;;;0.70;;
24637;SDS011;12773;50.162;8.548;2023-12-29T13:36:54;1.60;;;0.68;;
24637;SDS011;12773;50.162;8.548;2023-12-29T13:42:40;3.10;;;1.10;;
24637;SDS011;12773;50.162;8.548;2023-12-29T13:45:30;1.77;;;0.60;;
24637;SDS011;12773;50.162;8.548;2023-12-29T13:48:18;2.40;;;0.90;;
24637;SDS011;12773;50.162;8.548;2023-12-29T13:51:07;7.15;;;2.33;;
24637;SDS011;12773;50.162;8.548;2023-12-29T13:54:01;2.67;;;0.90;;
24637;SDS011;12773;50.162;8.548;2023-12-29T13:56:52;2.62;;;1.15;;
24637;SDS011;12773;50.162;8.548;2023-12-29T13:59:40;4.20;;;0.90;;
24637;SDS011;12773;50.162;8.548;2023-12-29T14:02:28;5.10;;;1.05;;
24637;SDS011;12773;50.162;8.548;2023-12-29T14:05:39;2.12;;;0.90;;
24637;SDS011;12773;50.162;8.548;2023-12-29T14:08:45;3.95;;;0.80;;
24637;SDS011;12773;50.162;8.548;2023-12-29T14:11:32;2.05;;;0.80;;
24637;SDS011;12773;50.162;8.548;2023-12-29T14:14:24;2.20;;;0.60;;
24637;SDS011;12773;50.162;8.548;2023-12-29T14:17:19;3.45;;;0.82;;
24637;SDS011;12773;50.162;8.548;2023-12-29T14:20:02;2.58;;;0.95;;
24637;SDS011;12773;50.162;8.548;2023-12-29T14:23:00;4.35;;;0.70;;
24637;SDS011;12773;50.162;8.548;2023-12-29T14:25:44;4.03;;;1.12;;
24637;SDS011;12773;50.162;8.548;2023-12-29T14:28:33;2.83;;;0.60;;
24637;SDS011;12773;50.162;8.548;2023-12-29T14:31:20;2.30;;;1.00;;
24637;SDS011;12773;50.162;8.548;2023-12-29T14:34:08;2.40;;;0.60;;
24637;SDS011;12773;50.162;8.548;2023-12-29T14:36:56;3.50;;;0.60;;
24637;SDS011;12773;50.162;8.548;2023-12-29T14:39:47;1.82;;;0.60;;
24637;SDS011;12773;50.162;8.548;2023-12-29T14:42:36;1.82;;;0.40;;
24637;SDS011;12773;50.162;8.548;2023-12-29T14:45:25;3.83;;;0.75;;
24637;SDS011;12773;50.162;8.548;2023-12-29T14:48:14;2.30;;;0.90;;
24637;SDS011;12773;50.162;8.548;2023-12-29T14:51:02;3.10;;;0.75;;
24637;SDS011;12773;50.162;8.548;2023-12-29T14:53:49;4.58;;;0.80;;
24637;SDS011;12773;50.162;8.548;2023-12-29T14:56:37;0.75;;;0.53;;
24637;SDS011;12773;50.162;8.548;2023-12-29T14:59:24;2.60;;;0.72;;
24637;SDS011;12773;50.162;8.548;2023-12-29T15:02:12;1.30;;;1.10;;
24637;SDS011;12773;50.162;8.548;2023-12-29T15:04:59;2.65;;;0.60;;
24637;SDS011;12773;50.162;8.548;2023-12-29T15:07:46;2.58;;;0.70;;
24637;SDS011;12773;50.162;8.548;2023-12-29T15:10:34;2.33;;;0.80;;
24637;SDS011;12773;50.162;8.548;2023-12-29T15:13:21;1.30;;;0.70;;
24637;SDS011;12773;50.162;8.548;2023-12-29T15:16:10;2.60;;;0.70;;
24637;SDS011;12773;50.162;8.548;2023-12-29T15:18:58;1.05;;;0.53;;
24637;SDS011;12773;50.162;8.548;2023-12-29T15:21:47;3.30;;;1.10;;
24637;SDS011;12773;50.162;8.548;2023-12-29T15:24:36;4.25;;;1.00;;
24637;SDS011;12773;50.162;8.548;2023-12-29T15:27:24;1.95;;;0.90;;
24637;SDS011;12773;50.162;8.548;2023-12-29T15:30:12;2.00;;;1.10;;
24637;SDS011;12773;50.162;8.548;2023-12-29T15:33:00;3.10;;;1.10;;
24637;SDS011;12773;50.162;8.548;2023-12-29T15:35:48;2.58;;;1.12;;
24637;SDS011;12773;50.162;8.548;2023-12-29T15:38:36;4.10;;;1.17;;
24637;SDS011;12773;50.162;8.548;2023-12-29T15:41:23;3.47;;;1.32;;
24637;SDS011;12773;50.162;8.548;2023-12-29T15:44:11;4.42;;;1.52;;
24637;SDS011;12773;50.162;8.548;2023-12-29T15:46:59;4.72;;;1.35;;
24637;SDS011;12773;50.162;8.548;2023-12-29T15:49:46;4.87;;;1.57;;
24637;SDS011;12773;50.162;8.548;2023-12-29T15:52:34;5.08;;;1.45;;
24637;SDS011;12773;50.162;8.548;2023-12-29T15:55:22;1.87;;;0.93;;
24637;SDS011;12773;50.162;8.548;2023-12-29T15:58:09;3.83;;;1.25;;
24637;SDS011;12773;50.162;8.548;2023-12-29T16:00:57;1.85;;;1.02;;
24637;SDS011;12773;50.162;8.548;2023-12-29T16:03:44;4.55;;;1.10;;
24637;SDS011;12773;50.162;8.548;2023-12-29T16:06:33;3.87;;;1.10;;
24637;SDS011;12773;50.162;8.548;2023-12-29T16:09:22;2.77;;;1.20;;
24637;SDS011;12773;50.162;8.548;2023-12-29T16:12:09;5.50;;;1.22;;
24637;SDS011;12773;50.162;8.548;2023-12-29T16:14:57;5.70;;;1.40;;
24637;SDS011;12773;50.162;8.548;2023-12-29T16:17:45;2.30;;;0.95;;
24637;SDS011;12773;50.162;8.548;2023-12-29T16:20:32;4.30;;;1.22;;
24637;SDS011;12773;50.162;8.548;2023-12-29T16:23:20;3.17;;;1.07;;
24637;SDS011;12773;50.162;8.548;2023-12-29T16:26:07;4.87;;;1.02;;
24637;SDS011;12773;50.162;8.548;2023-12-29T16:28:55;4.40;;;1.20;;
24637;SDS011;12773;50.162;8.548;2023-12-29T16:31:43;3.27;;;1.30;;
24637;SDS011;12773;50.162;8.548;2023-12-29T16:34:30;4.10;;;1.30;;
24637;SDS011;12773;50.162;8.548;2023-12-29T16:37:18;5.28;;;1.17;;
24637;SDS011;12773;50.162;8.548;2023-12-29T16:40:05;3.25;;;1.32;;
24637;SDS011;12773;50.162;8.548;2023-12-29T16:42:55;5.78;;;1.40;;
24637;SDS011;12773;50.162;8.548;2023-12-29T16:45:43;4.55;;;1.35;;
24637;SDS011;12773;50.162;8.548;2023-12-29T16:48:30;1.92;;;1.02;;
24637;SDS011;12773;50.162;8.548;2023-12-29T16:51:18;4.28;;;1.12;;
24637;SDS011;12773;50.162;8.548;2023-12-29T16:54:06;7.45;;;1.62;;
24637;SDS011;12773;50.162;8.548;2023-12-29T16:56:53;6.75;;;1.37;;
24637;SDS011;12773;50.162;8.548;2023-12-29T16:59:41;8.15;;;1.15;;
24637;SDS011;12773;50.162;8.548;2023-12-29T17:02:29;3.72;;;1.40;;
24637;SDS011;12773;50.162;8.548;2023-12-29T17:05:16;3.42;;;1.55;;
24637;SDS011;12773;50.162;8.548;2023-12-29T17:08:04;4.37;;;1.12;;